createdAt,value
2022-11-28T00:00:27.270Z,45.42
2022-11-28T00:00:59.820Z,45.31
2022-11-28T00:01:34.420Z,45.33
2022-11-28T00:02:09.528Z,45.62
2022-11-28T00:02:42.098Z,45.55
2022-11-28T00:03:14.518Z,45.18
2022-11-28T00:03:49.743Z,45.58
2022-11-28T00:04:22.131Z,45.56
2022-11-28T00:04:54.411Z,45.40
2022-11-28T00:05:29.331Z,45.38
2022-11-28T00:06:04.230Z,45.38
2022-11-28T00:06:37.356Z,45.31
2022-11-28T00:07:13.894Z,45.47
2022-11-28T00:07:46.256Z,45.52
2022-11-28T00:08:21.173Z,45.40
2022-11-28T00:08:56.228Z,45.18
2022-11-28T00:09:28.464Z,45.19
2022-11-28T00:10:02.101Z,45.45
2022-11-28T00:10:41.302Z,45.34
2022-11-28T00:11:15.399Z,45.34
2022-11-28T00:11:49.319Z,45.52
2022-11-28T00:12:24.218Z,45.50
2022-11-28T00:12:56.423Z,45.24
2022-11-28T00:13:28.649Z,45.41
2022-11-28T00:14:03.533Z,45.37
2022-11-28T00:14:35.746Z,45.50
2022-11-28T00:15:10.473Z,45.57
2022-11-28T00:15:45.383Z,45.61
2022-11-28T00:16:21.673Z,45.20
2022-11-28T00:16:54.103Z,45.35
2022-11-28T00:17:28.918Z,45.35
2022-11-28T00:18:01.143Z,45.49
2022-11-28T00:18:34.175Z,45.11
2022-11-28T00:19:09.505Z,45.16
2022-11-28T00:19:41.742Z,45.13
2022-11-28T00:20:14.256Z,45.47
2022-11-28T00:20:49.101Z,45.54
2022-11-28T00:21:21.904Z,45.55
2022-11-28T00:21:54.148Z,45.60
2022-11-28T00:22:30.015Z,45.57
2022-11-28T00:23:02.223Z,45.60
2022-11-28T00:23:37.316Z,45.17
2022-11-28T00:24:12.172Z,45.41
2022-11-28T00:24:44.761Z,45.47
2022-11-28T00:25:17.304Z,45.50
2022-11-28T00:26:00.102Z,45.52
2022-11-28T00:26:34.180Z,45.35
2022-11-28T00:27:09.671Z,45.41
2022-11-28T00:27:41.984Z,45.50
2022-11-28T00:28:14.209Z,45.55
2022-11-28T00:28:49.365Z,45.42
2022-11-28T00:29:21.611Z,45.38
2022-11-28T00:29:55.244Z,45.19
2022-11-28T00:30:30.073Z,45.35
2022-11-28T00:31:02.517Z,45.52
2022-11-28T00:31:42.705Z,45.27
2022-11-28T00:32:18.058Z,45.22
2022-11-28T00:32:50.278Z,45.42
2022-11-28T00:33:22.512Z,45.37
2022-11-28T00:33:58.100Z,45.68
2022-11-28T00:34:30.315Z,45.57
2022-11-28T00:35:02.532Z,45.35
2022-11-28T00:35:37.349Z,45.30
2022-11-28T00:36:10.431Z,45.40
2022-11-28T00:36:46.621Z,45.71
2022-11-28T00:37:18.836Z,45.37
2022-11-28T00:37:51.054Z,45.59
2022-11-28T00:38:25.861Z,45.59
2022-11-28T00:39:00.706Z,45.35
2022-11-28T00:39:35.544Z,45.68
2022-11-28T00:40:09.327Z,45.64
2022-11-28T00:40:41.728Z,45.30
2022-11-28T00:41:19.169Z,45.62
2022-11-28T00:41:51.426Z,45.50
2022-11-28T00:42:23.693Z,45.48
2022-11-28T00:42:58.564Z,45.69
2022-11-28T00:43:30.880Z,45.28
2022-11-28T00:44:03.249Z,45.66
2022-11-28T00:44:38.140Z,45.52
2022-11-28T00:45:10.541Z,45.52
2022-11-28T00:45:42.789Z,45.44
2022-11-28T00:46:18.302Z,45.27
2022-11-28T00:46:50.580Z,45.65
2022-11-28T00:47:22.860Z,45.64
2022-11-28T00:47:57.783Z,45.56
2022-11-28T00:48:30.376Z,45.30
2022-11-28T00:49:02.717Z,45.30
2022-11-28T00:49:37.621Z,45.51
2022-11-28T00:50:10.379Z,45.54
2022-11-28T00:50:42.587Z,45.72
2022-11-28T00:51:18.939Z,45.48
2022-11-28T00:51:51.203Z,45.34
2022-11-28T00:52:26.065Z,45.30
2022-11-28T00:52:58.281Z,45.31
2022-11-28T00:53:30.844Z,45.67
2022-11-28T00:54:09.638Z,45.49
2022-11-28T00:54:42.180Z,45.74
2022-11-28T00:55:14.643Z,45.33
2022-11-28T00:55:49.483Z,45.30
2022-11-28T00:56:23.160Z,45.42
2022-11-28T00:56:55.420Z,45.29
2022-11-28T00:57:30.230Z,45.22
2022-11-28T00:58:02.492Z,45.34
2022-11-28T00:58:35.968Z,45.36
2022-11-28T00:59:11.131Z,45.68
2022-11-28T00:59:43.340Z,45.27
2022-11-28T01:00:16.740Z,45.45
2022-11-28T01:00:49.755Z,45.33
2022-11-28T01:01:26.950Z,45.79
2022-11-28T01:01:59.371Z,45.50
2022-11-28T01:02:31.691Z,45.30
2022-11-28T01:03:06.801Z,45.62
2022-11-28T01:03:39.118Z,45.31
2022-11-28T01:04:13.052Z,45.57
2022-11-28T01:04:47.966Z,45.61
2022-11-28T01:05:20.175Z,45.56
2022-11-28T01:05:52.396Z,45.32
2022-11-28T01:06:28.658Z,45.28
2022-11-28T01:07:00.865Z,45.32
2022-11-28T01:07:33.659Z,45.67
2022-11-28T01:08:08.520Z,45.64
2022-11-28T01:08:40.754Z,45.76
2022-11-28T01:09:17.740Z,45.31
2022-11-28T01:09:52.580Z,45.66
2022-11-28T01:10:24.804Z,45.44
2022-11-28T01:10:57.086Z,45.31
2022-11-28T01:11:32.432Z,45.68
2022-11-28T01:12:05.199Z,45.29
2022-11-28T01:12:37.581Z,45.28
2022-11-28T01:13:12.685Z,45.18
2022-11-28T01:13:44.984Z,45.60
2022-11-28T01:14:19.403Z,45.55
2022-11-28T01:14:54.248Z,45.50
2022-11-28T01:15:26.824Z,45.54
2022-11-28T01:15:59.095Z,45.58
2022-11-28T01:16:34.264Z,45.29
2022-11-28T01:17:06.596Z,45.38
2022-11-28T01:17:38.950Z,45.57
2022-11-28T01:18:13.796Z,45.69
2022-11-28T01:18:46.010Z,45.66
2022-11-28T01:19:18.292Z,45.51
2022-11-28T01:19:53.113Z,45.59
2022-11-28T01:20:25.355Z,45.38
2022-11-28T01:20:57.560Z,45.67
2022-11-28T01:21:32.397Z,45.32
2022-11-28T01:22:06.498Z,45.53
2022-11-28T01:22:38.704Z,45.24
2022-11-28T01:23:13.520Z,45.52
2022-11-28T01:23:46.066Z,45.60
2022-11-28T01:24:23.568Z,45.20
2022-11-28T01:24:55.781Z,45.45
2022-11-28T01:25:28.120Z,45.50
2022-11-28T01:26:04.179Z,45.42
2022-11-28T01:26:38.309Z,45.32
2022-11-28T01:27:13.119Z,45.44
2022-11-28T01:27:45.340Z,45.28
2022-11-28T01:28:17.563Z,45.35
2022-11-28T01:28:52.368Z,45.57
2022-11-28T01:29:24.692Z,45.59
2022-11-28T01:29:56.901Z,45.66
2022-11-28T01:30:31.784Z,45.42
2022-11-28T01:31:05.942Z,45.67
2022-11-28T01:31:41.348Z,45.46
2022-11-28T01:32:13.672Z,45.19
2022-11-28T01:32:45.885Z,45.28
2022-11-28T01:33:20.695Z,45.60
2022-11-28T01:33:53.192Z,45.15
2022-11-28T01:34:28.126Z,45.14
2022-11-28T01:35:00.340Z,45.63
2022-11-28T01:35:32.563Z,45.60
2022-11-28T01:36:08.255Z,45.52
2022-11-28T01:36:40.559Z,45.52
2022-11-28T01:37:12.836Z,45.34
2022-11-28T01:37:47.685Z,45.64
2022-11-28T01:38:19.904Z,45.55
2022-11-28T01:38:52.545Z,45.34
2022-11-28T01:39:30.001Z,45.24
2022-11-28T01:40:02.389Z,45.12
2022-11-28T01:40:34.737Z,45.55
2022-11-28T01:41:10.832Z,45.30
2022-11-28T01:41:43.112Z,45.20
2022-11-28T01:42:17.268Z,45.23
2022-11-28T01:42:52.080Z,45.57
2022-11-28T01:43:24.857Z,45.59
2022-11-28T01:44:03.275Z,45.26
2022-11-28T01:45:08.113Z,45.32
2022-11-28T01:45:40.428Z,45.64
2022-11-28T01:46:12.877Z,45.45
2022-11-28T01:46:47.758Z,45.68
2022-11-28T01:47:22.903Z,45.52
2022-11-28T01:47:58.087Z,45.45
2022-11-28T01:48:35.752Z,45.37
2022-11-28T01:49:11.505Z,45.33
2022-11-28T01:49:45.165Z,45.35
2022-11-28T01:50:20.771Z,45.60
2022-11-28T01:50:55.990Z,45.64
2022-11-28T01:51:31.336Z,45.64
2022-11-28T01:52:05.648Z,45.77
2022-11-28T01:52:39.585Z,45.40
2022-11-28T01:53:15.905Z,45.31
2022-11-28T01:53:48.973Z,45.42
2022-11-28T01:54:23.300Z,45.30
2022-11-28T01:55:03.305Z,45.27
2022-11-28T01:55:41.008Z,45.78
2022-11-28T01:56:16.026Z,45.74
2022-11-28T01:56:54.488Z,45.74
2022-11-28T01:57:27.392Z,45.57
2022-11-28T01:57:59.663Z,45.83
2022-11-28T01:58:35.869Z,45.71
2022-11-28T01:59:11.497Z,45.50
2022-11-28T01:59:49.728Z,45.69
2022-11-28T02:00:25.397Z,45.79
2022-11-28T02:00:57.838Z,45.29
2022-11-28T02:01:32.879Z,45.51
2022-11-28T02:02:11.569Z,45.52
2022-11-28T02:02:47.141Z,45.54
2022-11-28T02:03:23.475Z,45.50
2022-11-28T02:03:58.751Z,45.45
2022-11-28T02:04:31.084Z,45.66
2022-11-28T02:05:03.918Z,45.47
2022-11-28T02:05:39.313Z,45.16
2022-11-28T02:06:13.656Z,45.24
2022-11-28T02:06:48.730Z,45.70
2022-11-28T02:07:21.013Z,45.21
2022-11-28T02:07:54.042Z,45.49
2022-11-28T02:08:28.905Z,45.72
2022-11-28T02:09:01.115Z,45.75
2022-11-28T02:09:33.408Z,45.61
2022-11-28T02:10:14.041Z,45.73
2022-11-28T02:11:02.343Z,45.43
2022-11-28T02:12:01.825Z,45.40
2022-11-28T02:12:50.149Z,45.35
2022-11-28T02:13:32.053Z,45.75
2022-11-28T02:14:14.321Z,45.69
2022-11-28T02:15:05.828Z,45.46
2022-11-28T02:15:55.229Z,45.58
2022-11-28T02:16:42.037Z,45.54
2022-11-28T02:17:21.844Z,45.63
2022-11-28T02:18:01.968Z,45.74
2022-11-28T02:18:50.544Z,45.32
2022-11-28T02:19:50.882Z,45.44
2022-11-28T02:20:46.337Z,45.52
2022-11-28T02:21:28.461Z,45.64
2022-11-28T02:22:04.390Z,45.26
2022-11-28T02:22:42.262Z,45.60
2022-11-28T02:23:18.912Z,45.71
2022-11-28T02:24:24.595Z,45.71
2022-11-28T02:25:14.711Z,45.26
2022-11-28T02:26:09.344Z,45.70
2022-11-28T02:27:01.909Z,45.68
2022-11-28T02:27:56.500Z,45.49
2022-11-28T02:28:58.102Z,45.70
2022-11-28T02:30:04.409Z,45.40
2022-11-28T02:30:42.416Z,45.37
2022-11-28T02:31:33.622Z,45.57
2022-11-28T02:32:23.613Z,45.75
2022-11-28T02:33:04.011Z,45.59
2022-11-28T02:33:41.466Z,45.59
2022-11-28T02:34:16.681Z,45.65
2022-11-28T02:34:55.700Z,45.19
2022-11-28T02:35:37.916Z,45.49
2022-11-28T02:36:13.104Z,45.53
2022-11-28T02:36:50.344Z,45.26
2022-11-28T02:37:29.721Z,45.58
2022-11-28T02:38:05.889Z,45.27
2022-11-28T02:38:52.041Z,45.49
2022-11-28T02:39:33.175Z,45.12
2022-11-28T02:40:10.229Z,45.47
2022-11-28T02:40:50.303Z,45.45
2022-11-28T02:41:32.232Z,45.31
2022-11-28T02:42:10.035Z,45.47
2022-11-28T02:42:50.618Z,45.27
2022-11-28T02:43:29.718Z,45.25
2022-11-28T02:44:09.829Z,45.38
2022-11-28T02:44:45.195Z,45.21
2022-11-28T02:45:25.949Z,45.61
2022-11-28T02:46:01.745Z,45.67
2022-11-28T02:46:44.057Z,45.64
2022-11-28T02:47:23.799Z,45.40
2022-11-28T02:47:59.413Z,45.25
2022-11-28T02:48:40.400Z,45.45
2022-11-28T02:49:15.181Z,45.20
2022-11-28T02:49:50.648Z,45.61
2022-11-28T02:50:28.233Z,45.21
2022-11-28T02:51:04.239Z,45.71
2022-11-28T02:51:41.440Z,45.69
2022-11-28T02:52:16.074Z,45.19
2022-11-28T02:52:50.042Z,45.52
2022-11-28T02:53:27.768Z,45.57
2022-11-28T02:54:01.405Z,45.22
2022-11-28T02:54:33.901Z,45.44
2022-11-28T02:55:10.602Z,45.17
2022-11-28T02:55:44.098Z,45.52
2022-11-28T02:56:18.974Z,45.40
2022-11-28T02:56:52.884Z,45.49
2022-11-28T02:57:30.047Z,45.79
2022-11-28T02:58:02.308Z,45.52
2022-11-28T02:58:37.141Z,45.57
2022-11-28T02:59:28.633Z,45.16
2022-11-28T03:00:03.490Z,45.51
2022-11-28T03:00:37.828Z,45.37
2022-11-28T03:01:18.513Z,45.64
2022-11-28T03:01:53.432Z,45.28
2022-11-28T03:02:30.470Z,45.19
2022-11-28T03:03:29.109Z,45.28
2022-11-28T03:04:20.104Z,45.62
2022-11-28T03:04:58.040Z,45.46
2022-11-28T03:05:33.371Z,45.65
2022-11-28T03:06:11.389Z,45.23
2022-11-28T03:06:52.236Z,45.24
2022-11-28T03:07:33.067Z,45.49
2022-11-28T03:08:15.434Z,45.53
2022-11-28T03:09:09.505Z,45.52
2022-11-28T03:09:56.309Z,45.70
2022-11-28T03:10:36.339Z,45.56
2022-11-28T03:11:14.472Z,45.20
2022-11-28T03:11:50.702Z,45.49
2022-11-28T03:12:30.828Z,45.59
2022-11-28T03:13:09.231Z,45.56
2022-11-28T03:13:45.986Z,45.47
2022-11-28T03:14:28.032Z,45.61
2022-11-28T03:15:02.314Z,45.30
2022-11-28T03:15:47.788Z,45.64
2022-11-28T03:16:25.237Z,45.64
2022-11-28T03:17:05.189Z,45.26
2022-11-28T03:17:54.872Z,45.62
2022-11-28T03:18:32.706Z,45.21
2022-11-28T03:19:11.765Z,45.66
2022-11-28T03:19:53.165Z,45.57
2022-11-28T03:20:30.933Z,45.60
2022-11-28T03:21:10.071Z,45.59
2022-11-28T03:21:49.849Z,45.69
2022-11-28T03:22:26.485Z,45.57
2022-11-28T03:23:12.922Z,45.14
2022-11-28T03:23:48.685Z,45.60
2022-11-28T03:24:28.641Z,45.42
2022-11-28T03:25:07.549Z,45.58
2022-11-28T03:25:45.237Z,45.23
2022-11-28T03:26:25.171Z,45.61
2022-11-28T03:27:05.804Z,45.28
2022-11-28T03:27:41.621Z,45.59
2022-11-28T03:28:19.791Z,45.36
2022-11-28T03:28:58.087Z,45.61
2022-11-28T03:29:33.267Z,45.36
2022-11-28T03:30:10.339Z,45.57
2022-11-28T03:30:49.872Z,45.52
2022-11-28T03:31:24.936Z,46.90
2022-11-28T03:31:59.988Z,46.88
2022-11-28T03:32:36.608Z,46.73
2022-11-28T03:33:13.133Z,46.16
2022-11-28T03:33:49.413Z,45.92
2022-11-28T03:34:26.536Z,45.95
2022-11-28T03:35:03.905Z,45.86
2022-11-28T03:35:40.052Z,45.58
2022-11-28T03:36:17.687Z,45.08
2022-11-28T03:36:53.017Z,45.24
2022-11-28T03:37:28.059Z,44.81
2022-11-28T03:38:07.308Z,44.79
2022-11-28T03:38:42.425Z,44.53
2022-11-28T03:39:18.380Z,44.41
2022-11-28T03:39:58.136Z,44.01
2022-11-28T03:40:34.185Z,43.96
2022-11-28T03:41:09.097Z,43.84
2022-11-28T03:41:46.455Z,44.01
2022-11-28T03:42:22.472Z,43.71
2022-11-28T03:42:58.800Z,43.89
2022-11-28T03:43:36.002Z,43.76
2022-11-28T03:44:12.215Z,43.55
2022-11-28T03:44:48.467Z,43.33
2022-11-28T03:45:25.263Z,43.58
2022-11-28T03:45:59.348Z,43.18
2022-11-28T03:46:35.885Z,43.25
2022-11-28T03:47:10.988Z,43.20
2022-11-28T03:47:47.291Z,43.23
2022-11-28T03:48:28.653Z,43.04
2022-11-28T03:49:01.453Z,43.16
2022-11-28T03:49:37.084Z,42.88
2022-11-28T03:50:17.655Z,42.91
2022-11-28T03:50:55.381Z,43.08
2022-11-28T03:51:31.500Z,42.73
2022-11-28T03:52:08.274Z,43.08
2022-11-28T03:52:43.948Z,43.13
2022-11-28T03:53:19.744Z,42.91
2022-11-28T03:53:58.501Z,42.77
2022-11-28T03:54:35.480Z,42.77
2022-11-28T03:55:12.300Z,42.79
2022-11-28T03:55:51.752Z,42.66
2022-11-28T03:56:29.333Z,42.50
2022-11-28T03:57:07.024Z,42.71
2022-11-28T03:57:45.508Z,42.92
2022-11-28T03:58:23.644Z,42.55
2022-11-28T03:58:58.596Z,42.65
2022-11-28T03:59:36.525Z,42.65
2022-11-28T04:00:13.060Z,42.88
2022-11-28T04:00:50.088Z,42.58
2022-11-28T04:01:32.200Z,42.70
2022-11-28T04:02:08.680Z,42.46
2022-11-28T04:02:46.004Z,42.72
2022-11-28T04:03:29.834Z,42.68
2022-11-28T04:04:11.592Z,42.60
2022-11-28T04:04:51.741Z,42.46
2022-11-28T04:05:30.992Z,42.73
2022-11-28T04:06:05.925Z,42.58
2022-11-28T04:06:45.300Z,42.53
2022-11-28T04:07:26.209Z,42.44
2022-11-28T04:07:59.650Z,42.58
2022-11-28T04:08:34.401Z,42.65
2022-11-28T04:09:14.506Z,42.63
2022-11-28T04:09:50.493Z,42.31
2022-11-28T04:10:30.293Z,42.50
2022-11-28T04:11:06.263Z,42.81
2022-11-28T04:11:41.840Z,42.82
2022-11-28T04:12:22.960Z,42.86
2022-11-28T04:12:59.109Z,42.44
2022-11-28T04:13:33.479Z,42.67
2022-11-28T04:14:12.716Z,42.70
2022-11-28T04:14:47.604Z,42.53
2022-11-28T04:15:25.818Z,42.67
2022-11-28T04:16:05.577Z,42.75
2022-11-28T04:16:41.015Z,42.29
2022-11-28T04:17:17.460Z,42.67
2022-11-28T04:17:57.200Z,42.51
2022-11-28T04:18:40.208Z,42.40
2022-11-28T04:19:16.297Z,42.63
2022-11-28T04:19:53.968Z,42.33
2022-11-28T04:20:30.719Z,42.60
2022-11-28T04:21:08.907Z,42.33
2022-11-28T04:21:47.831Z,42.34
2022-11-28T04:22:21.885Z,42.63
2022-11-28T04:22:57.976Z,42.79
2022-11-28T04:23:33.481Z,42.75
2022-11-28T04:24:09.447Z,42.37
2022-11-28T04:24:45.564Z,42.46
2022-11-28T04:25:22.477Z,42.48
2022-11-28T04:26:03.438Z,42.26
2022-11-28T04:26:37.819Z,42.43
2022-11-28T04:27:15.468Z,42.49
2022-11-28T04:27:49.966Z,42.50
2022-11-28T04:28:28.013Z,42.57
2022-11-28T04:29:01.750Z,42.48
2022-11-28T04:29:36.137Z,42.68
2022-11-28T04:30:13.185Z,42.50
2022-11-28T04:30:47.369Z,42.38
2022-11-28T04:31:22.630Z,42.58
2022-11-28T04:31:59.946Z,42.70
2022-11-28T04:32:34.443Z,42.31
2022-11-28T04:33:11.515Z,42.75
2022-11-28T04:33:51.424Z,42.73
2022-11-28T04:34:24.022Z,42.50
2022-11-28T04:35:01.349Z,42.40
2022-11-28T04:35:35.764Z,42.26
2022-11-28T04:36:09.292Z,42.81
2022-11-28T04:36:46.026Z,42.56
2022-11-28T04:37:18.436Z,42.53
2022-11-28T04:37:52.126Z,42.63
2022-11-28T04:38:27.761Z,42.64
2022-11-28T04:39:00.548Z,42.29
2022-11-28T04:39:34.000Z,42.45
2022-11-28T04:40:13.330Z,42.48
2022-11-28T04:40:49.861Z,42.31
2022-11-28T04:41:24.896Z,42.67
2022-11-28T04:42:04.868Z,42.46
2022-11-28T04:42:40.433Z,42.39
2022-11-28T04:43:17.921Z,42.65
2022-11-28T04:43:55.129Z,42.42
2022-11-28T04:44:31.870Z,42.55
2022-11-28T04:45:09.398Z,42.60
2022-11-28T04:45:48.099Z,42.26
2022-11-28T04:46:25.190Z,42.40
2022-11-28T04:46:58.069Z,42.37
2022-11-28T04:47:33.228Z,42.46
2022-11-28T04:48:06.511Z,42.63
2022-11-28T04:48:39.026Z,42.44
2022-11-28T04:49:17.289Z,42.24
2022-11-28T04:49:49.793Z,42.49
2022-11-28T04:50:24.375Z,42.25
2022-11-28T04:51:04.542Z,42.40
2022-11-28T04:51:42.173Z,42.68
2022-11-28T04:52:19.329Z,42.69
2022-11-28T04:52:57.614Z,42.37
2022-11-28T04:53:34.789Z,42.59
2022-11-28T04:54:12.376Z,42.63
2022-11-28T04:54:53.649Z,42.38
2022-11-28T04:55:31.720Z,42.38
2022-11-28T04:56:07.043Z,42.49
2022-11-28T04:56:45.339Z,42.17
2022-11-28T04:57:19.500Z,42.43
2022-11-28T04:57:57.562Z,42.24
2022-11-28T04:58:34.777Z,42.33
2022-11-28T04:59:10.110Z,42.41
2022-11-28T04:59:43.130Z,42.09
2022-11-28T05:00:18.280Z,42.42
2022-11-28T05:00:56.075Z,42.17
2022-11-28T05:01:31.181Z,42.41
2022-11-28T05:02:05.039Z,42.05
2022-11-28T05:02:41.033Z,42.10
2022-11-28T05:03:13.592Z,42.48
2022-11-28T05:03:45.931Z,42.33
2022-11-28T05:04:23.425Z,42.07
2022-11-28T05:04:55.986Z,42.31
2022-11-28T05:05:30.517Z,42.13
2022-11-28T05:06:06.657Z,42.02
2022-11-28T05:06:38.935Z,42.38
2022-11-28T05:07:11.210Z,41.93
2022-11-28T05:07:46.171Z,42.44
2022-11-28T05:08:19.434Z,42.19
2022-11-28T05:08:51.776Z,42.14
2022-11-28T05:09:26.627Z,42.17
2022-11-28T05:09:59.110Z,42.06
2022-11-28T05:10:31.440Z,42.14
2022-11-28T05:11:06.339Z,42.28
2022-11-28T05:11:39.231Z,41.97
2022-11-28T05:12:11.474Z,41.98
2022-11-28T05:12:46.300Z,41.96
2022-11-28T05:13:18.703Z,42.20
2022-11-28T05:13:53.586Z,42.19
2022-11-28T05:14:26.103Z,42.36
2022-11-28T05:14:58.362Z,42.00
2022-11-28T05:15:33.413Z,42.14
2022-11-28T05:16:06.669Z,41.93
2022-11-28T05:16:38.996Z,42.33
2022-11-28T05:17:14.261Z,42.15
2022-11-28T05:17:46.815Z,42.11
2022-11-28T05:18:19.089Z,42.28
2022-11-28T05:18:53.913Z,42.29
2022-11-28T05:19:28.785Z,42.13
2022-11-28T05:20:01.001Z,42.25
2022-11-28T05:20:36.064Z,42.31
2022-11-28T05:21:09.138Z,42.26
2022-11-28T05:21:41.488Z,42.24
2022-11-28T05:22:16.308Z,42.27
2022-11-28T05:22:48.569Z,42.29
2022-11-28T05:23:20.831Z,42.02
2022-11-28T05:23:55.701Z,41.97
2022-11-28T05:24:32.056Z,42.21
2022-11-28T05:25:05.339Z,42.50
2022-11-28T05:25:41.238Z,42.21
2022-11-28T05:26:15.480Z,42.13
2022-11-28T05:26:48.010Z,42.00
2022-11-28T05:27:22.892Z,42.40
2022-11-28T05:27:55.144Z,42.46
2022-11-28T05:28:27.372Z,42.23
2022-11-28T05:29:02.215Z,42.41
2022-11-28T05:29:34.486Z,42.37
2022-11-28T05:30:08.665Z,42.29
2022-11-28T05:30:43.500Z,41.99
2022-11-28T05:31:16.310Z,42.22
2022-11-28T05:31:48.633Z,42.42
2022-11-28T05:32:23.500Z,42.17
2022-11-28T05:32:56.116Z,42.46
2022-11-28T05:33:29.491Z,42.10
2022-11-28T05:34:04.333Z,42.00
2022-11-28T05:34:39.271Z,42.24
2022-11-28T05:35:11.665Z,42.48
2022-11-28T05:35:46.541Z,42.33
2022-11-28T05:36:18.816Z,42.07
2022-11-28T05:36:51.057Z,42.00
2022-11-28T05:37:25.885Z,42.46
2022-11-28T05:37:58.129Z,42.07
2022-11-28T05:38:30.385Z,42.44
2022-11-28T05:39:05.226Z,42.03
2022-11-28T05:39:37.449Z,42.41
2022-11-28T05:40:10.193Z,42.53
2022-11-28T05:40:45.725Z,42.31
2022-11-28T05:41:22.434Z,42.12
2022-11-28T05:41:57.932Z,42.31
2022-11-28T05:42:32.769Z,42.08
2022-11-28T05:43:04.996Z,42.14
2022-11-28T05:43:39.956Z,42.27
2022-11-28T05:44:12.232Z,42.26
2022-11-28T05:44:44.492Z,42.32
2022-11-28T05:45:19.336Z,42.58
2022-11-28T05:45:51.913Z,42.42
2022-11-28T05:46:24.415Z,42.43
2022-11-28T05:46:59.238Z,42.48
2022-11-28T05:47:31.927Z,42.29
2022-11-28T05:48:04.340Z,42.58
2022-11-28T05:48:39.288Z,42.55
2022-11-28T05:49:11.587Z,42.57
2022-11-28T05:49:47.095Z,42.23
2022-11-28T05:50:21.926Z,42.57
2022-11-28T05:50:54.195Z,42.15
2022-11-28T05:51:26.638Z,42.14
2022-11-28T05:52:01.535Z,42.38
2022-11-28T05:52:33.794Z,42.22
2022-11-28T05:53:06.050Z,42.46
2022-11-28T05:53:41.109Z,42.12
2022-11-28T05:54:13.476Z,42.50
2022-11-28T05:54:45.721Z,42.35
2022-11-28T05:55:20.711Z,42.22
2022-11-28T05:55:53.057Z,42.19
2022-11-28T05:56:25.413Z,42.40
2022-11-28T05:57:00.273Z,42.24
2022-11-28T05:57:32.738Z,42.59
2022-11-28T05:58:05.112Z,42.55
2022-11-28T05:58:40.574Z,42.63
2022-11-28T05:59:13.486Z,42.29
2022-11-28T05:59:46.015Z,42.17
2022-11-28T06:00:22.561Z,42.51
2022-11-28T06:00:54.790Z,42.17
2022-11-28T06:01:31.020Z,41.10
2022-11-28T06:02:03.393Z,41.10
2022-11-28T06:02:36.213Z,41.47
2022-11-28T06:03:11.182Z,41.55
2022-11-28T06:03:43.603Z,41.85
2022-11-28T06:04:15.924Z,41.83
2022-11-28T06:04:53.417Z,42.29
2022-11-28T06:05:41.656Z,42.29
2022-11-28T06:06:20.828Z,42.42
2022-11-28T06:06:53.082Z,42.46
2022-11-28T06:07:25.402Z,42.60
2022-11-28T06:08:00.337Z,43.06
2022-11-28T06:08:32.629Z,42.95
2022-11-28T06:09:06.196Z,43.20
2022-11-28T06:09:41.411Z,43.47
2022-11-28T06:10:13.872Z,43.42
2022-11-28T06:10:46.099Z,43.57
2022-11-28T06:11:21.736Z,43.64
2022-11-28T06:11:54.026Z,43.76
2022-11-28T06:12:26.326Z,43.47
2022-11-28T06:13:01.170Z,43.70
2022-11-28T06:13:33.407Z,44.03
2022-11-28T06:14:05.991Z,43.94
2022-11-28T06:14:41.116Z,43.73
2022-11-28T06:15:13.352Z,43.85
2022-11-28T06:15:45.645Z,44.02
2022-11-28T06:16:22.599Z,44.08
2022-11-28T06:16:54.949Z,44.02
2022-11-28T06:17:27.340Z,44.29
2022-11-28T06:18:02.220Z,44.30
2022-11-28T06:18:34.644Z,44.38
2022-11-28T06:19:07.122Z,44.26
2022-11-28T06:19:42.719Z,44.21
2022-11-28T06:20:17.945Z,44.43
2022-11-28T06:20:53.048Z,44.29
2022-11-28T06:21:25.786Z,44.43
2022-11-28T06:22:00.604Z,44.32
2022-11-28T06:22:32.877Z,44.48
2022-11-28T06:23:05.108Z,44.48
2022-11-28T06:23:40.365Z,44.12
2022-11-28T06:24:12.602Z,44.36
2022-11-28T06:24:47.413Z,44.73
2022-11-28T06:25:19.664Z,44.41
2022-11-28T06:26:04.968Z,44.89
2022-11-28T06:26:39.861Z,44.45
2022-11-28T06:27:12.100Z,44.68
2022-11-28T06:27:44.330Z,44.36
2022-11-28T06:28:19.164Z,44.70
2022-11-28T06:28:51.412Z,44.35
2022-11-28T06:29:26.325Z,44.75
2022-11-28T06:29:58.583Z,44.63
2022-11-28T06:30:33.419Z,44.31
2022-11-28T06:31:10.135Z,44.81
2022-11-28T06:31:42.406Z,44.36
2022-11-28T06:32:21.790Z,44.65
2022-11-28T06:32:54.437Z,44.39
2022-11-28T06:33:26.775Z,44.47
2022-11-28T06:34:01.888Z,44.42
2022-11-28T06:34:34.632Z,44.59
2022-11-28T06:35:07.833Z,44.59
2022-11-28T06:35:45.257Z,44.82
2022-11-28T06:36:19.114Z,44.77
2022-11-28T06:36:51.416Z,44.65
2022-11-28T06:37:26.238Z,44.89
2022-11-28T06:37:58.445Z,44.94
2022-11-28T06:38:33.492Z,44.52
2022-11-28T06:39:05.727Z,44.46
2022-11-28T06:39:40.805Z,44.72
2022-11-28T06:40:13.898Z,44.31
2022-11-28T06:40:48.701Z,44.47
2022-11-28T06:41:22.886Z,44.85
2022-11-28T06:41:58.227Z,44.51
2022-11-28T06:42:30.464Z,44.67
2022-11-28T06:43:02.671Z,44.61
2022-11-28T06:43:37.869Z,44.92
2022-11-28T06:44:13.228Z,44.49
2022-11-28T06:44:45.440Z,44.84
2022-11-28T06:45:20.363Z,44.93
2022-11-28T06:45:52.896Z,44.86
2022-11-28T06:46:27.787Z,44.60
2022-11-28T06:47:00.232Z,44.99
2022-11-28T06:47:35.385Z,44.92
2022-11-28T06:48:07.616Z,44.65
2022-11-28T06:48:39.888Z,44.96
2022-11-28T06:49:15.444Z,45.06
2022-11-28T06:49:48.736Z,44.80
2022-11-28T06:50:20.947Z,45.07
2022-11-28T06:51:05.154Z,44.65
2022-11-28T06:51:37.654Z,44.55
2022-11-28T06:52:12.466Z,44.87
2022-11-28T06:52:44.731Z,45.02
2022-11-28T06:53:19.749Z,44.94
2022-11-28T06:53:52.009Z,44.71
2022-11-28T06:54:27.006Z,44.91
2022-11-28T06:54:59.273Z,44.93
2022-11-28T06:55:31.541Z,45.12
2022-11-28T06:56:10.399Z,44.89
2022-11-28T06:56:42.691Z,45.16
2022-11-28T06:57:17.513Z,44.96
2022-11-28T06:57:49.724Z,44.82
2022-11-28T06:58:21.923Z,44.98
2022-11-28T06:58:58.155Z,44.89
2022-11-28T06:59:30.445Z,44.99
2022-11-28T07:00:03.514Z,44.69
2022-11-28T07:00:38.808Z,44.70
2022-11-28T07:01:12.516Z,44.99
2022-11-28T07:01:47.604Z,45.04
2022-11-28T07:02:19.939Z,45.02
2022-11-28T07:02:52.197Z,44.72
2022-11-28T07:03:27.016Z,45.17
2022-11-28T07:03:59.265Z,44.77
2022-11-28T07:04:31.551Z,44.67
2022-11-28T07:05:06.541Z,44.79
2022-11-28T07:05:38.860Z,44.84
2022-11-28T07:06:17.436Z,45.08
2022-11-28T07:06:49.698Z,44.71
2022-11-28T07:07:24.581Z,45.17
2022-11-28T07:07:56.917Z,44.86
2022-11-28T07:08:30.440Z,44.96
2022-11-28T07:09:05.383Z,45.13
2022-11-28T07:09:37.609Z,44.77
2022-11-28T07:10:10.666Z,44.81
2022-11-28T07:10:45.491Z,45.05
2022-11-28T07:11:20.069Z,44.98
2022-11-28T07:11:52.321Z,45.26
2022-11-28T07:12:27.163Z,45.28
2022-11-28T07:13:05.146Z,45.13
2022-11-28T07:13:38.056Z,45.41
2022-11-28T07:14:13.299Z,45.11
2022-11-28T07:14:45.525Z,45.13
2022-11-28T07:15:17.957Z,45.35
2022-11-28T07:15:53.206Z,45.32
2022-11-28T07:16:26.759Z,45.47
2022-11-28T07:17:01.723Z,45.06
2022-11-28T07:17:34.513Z,45.11
2022-11-28T07:18:06.736Z,45.36
2022-11-28T07:18:41.650Z,45.41
2022-11-28T07:19:13.920Z,45.37
2022-11-28T07:19:50.491Z,45.13
2022-11-28T07:20:28.472Z,45.43
2022-11-28T07:21:00.878Z,45.21
2022-11-28T07:21:38.297Z,45.40
2022-11-28T07:22:10.757Z,44.99
2022-11-28T07:22:43.797Z,44.92
2022-11-28T07:23:18.625Z,45.35
2022-11-28T07:23:51.439Z,45.04
2022-11-28T07:24:26.348Z,45.32
2022-11-28T07:24:58.556Z,44.89
2022-11-28T07:25:33.365Z,45.26
2022-11-28T07:26:06.256Z,45.33
2022-11-28T07:26:41.089Z,45.45
2022-11-28T07:27:13.324Z,45.47
2022-11-28T07:27:45.552Z,45.37
2022-11-28T07:28:23.275Z,45.40
2022-11-28T07:28:58.012Z,45.04
2022-11-28T07:29:36.587Z,45.03
2022-11-28T07:30:10.240Z,45.27
2022-11-28T07:30:42.496Z,45.11
2022-11-28T07:31:19.125Z,45.45
2022-11-28T07:31:51.513Z,45.49
2022-11-28T07:32:23.797Z,45.18
2022-11-28T07:32:58.619Z,45.45
2022-11-28T07:33:30.881Z,45.13
2022-11-28T07:34:06.030Z,45.14
2022-11-28T07:34:38.414Z,45.51
2022-11-28T07:35:13.251Z,45.35
2022-11-28T07:35:45.456Z,45.21
2022-11-28T07:36:19.636Z,45.08
2022-11-28T07:36:57.058Z,45.38
2022-11-28T07:37:29.283Z,45.11
2022-11-28T07:38:01.491Z,45.27
2022-11-28T07:38:36.667Z,45.42
2022-11-28T07:39:10.768Z,45.21